Time;durP1;ratioP1;P1;durP2;ratioP2;P2;SDS_P1;SDS_P2;PMS_P1;PMS_P2;Temp;Humidity;BMP_temperature;BMP_pressure;BME280_temperature;BME280_humidity;BME280_pressure;Samples;Min_cycle;Max_cycle;Signal;HPM_P1;HPM_P2
2022/05/14 00:01:36;;;;;;;2.05;0.90;;;21.70;53.60;;;;;;6255108;22;20027;-45
2022/05/14 00:04:03;;;;;;;3.42;0.90;;;21.60;90.00;;;;;;6228774;23;20134;-45
2022/05/14 00:06:30;;;;;;;2.70;0.70;;;21.80;88.90;;;;;;6255291;23;19992;-45
2022/05/14 00:08:56;;;;;;;1.65;1.00;;;21.90;89.90;;;;;;6244892;23;20087;-46
2022/05/14 00:14:08;;;;;;;2.30;0.82;;;22.00;55.60;;;;;;6255260;23;20023;-45
2022/05/14 00:16:35;;;;;;;3.38;1.00;;;21.30;90.00;;;;;;6245495;23;19997;-45
2022/05/14 00:19:02;;;;;;;1.40;0.70;;;21.70;89.90;;;;;;6255100;23;20011;-45
2022/05/14 00:21:28;;;;;;;2.08;0.80;;;;;;;;;;6255199;23;20050;-45
2022/05/14 00:23:54;;;;;;;2.42;0.80;;;21.80;90.20;;;;;;6255168;23;20024;-45
2022/05/14 00:26:21;;;;;;;2.47;0.90;;;21.40;90.00;;;;;;6255141;23;20000;-45
2022/05/14 00:28:47;;;;;;;2.08;0.70;;;21.20;89.80;;;;;;6245226;23;19996;-45
2022/05/14 00:31:13;;;;;;;1.45;0.70;;;21.60;90.00;;;;;;6255141;23;20026;-45
2022/05/14 00:33:39;;;;;;;1.85;0.68;;;;;;;;;;6254933;23;20004;-45
2022/05/14 00:36:06;;;;;;;1.52;0.80;;;21.50;80.90;;;;;;6255061;23;20003;-45
2022/05/14 00:38:32;;;;;;;3.47;0.85;;;;;;;;;;6255023;23;20055;-45
2022/05/14 00:41:04;;;;;;;2.58;0.95;;;21.60;51.00;;;;;;6245118;23;20055;-45
2022/05/14 00:43:30;;;;;;;2.80;0.93;;;21.40;90.00;;;;;;6244664;23;20023;-45
2022/05/14 00:46:03;;;;;;;1.25;0.60;;;21.70;89.90;;;;;;6254975;23;20078;-44
2022/05/14 00:48:36;;;;;;;3.50;1.02;;;21.70;90.00;;;;;;6255009;23;19996;-45
2022/05/14 00:51:02;;;;;;;2.08;0.77;;;21.60;90.00;;;;;;6255014;23;20001;-45
2022/05/14 00:53:36;;;;;;;2.30;0.60;;;21.60;55.50;;;;;;6227892;23;20093;-45
2022/05/14 00:56:07;;;;;;;3.83;0.68;;;21.50;55.50;;;;;;6255014;23;20451;-45
2022/05/14 00:58:41;;;;;;;3.35;0.80;;;21.50;55.50;;;;;;6228074;23;20001;-45
2022/05/14 01:01:07;;;;;;;3.35;1.20;;;21.40;90.00;;;;;;6255864;22;19999;-44
2022/05/14 01:03:33;;;;;;;2.33;0.90;;;21.50;53.80;;;;;;6256977;23;20000;-45
2022/05/14 01:06:01;;;;;;;1.05;0.68;;;21.60;89.80;;;;;;6256946;23;19993;-45
2022/05/14 01:08:28;;;;;;;0.65;0.60;;;21.40;89.70;;;;;;6256741;23;20351;-44
2022/05/14 01:10:54;;;;;;;1.80;0.80;;;;;;;;;;6257007;23;19992;-44
2022/05/14 01:13:20;;;;;;;1.92;0.70;;;21.40;89.60;;;;;;6256897;23;20095;-44
2022/05/14 01:15:52;;;;;;;1.42;0.73;;;21.50;55.40;;;;;;6256904;23;20069;-44
2022/05/14 01:18:20;;;;;;;2.38;0.80;;;21.70;74.40;;;;;;6256988;23;20000;-45
2022/05/14 01:20:53;;;;;;;4.03;0.82;;;21.20;89.80;;;;;;6256843;23;20033;-45
2022/05/14 01:26:27;;;;;;;2.13;0.73;;;21.70;89.90;;;;;;6256873;23;20000;-45
2022/05/14 01:26:28;;;;;;;3.00;0.90;;;21.40;53.30;;;;;;6246571;23;20000;-46
2022/05/14 01:29:01;;;;;;;2.67;0.90;;;21.50;51.10;;;;;;6257150;23;19996;-48
2022/05/14 01:31:28;;;;;;;2.40;0.82;;;21.30;89.50;;;;;;6256863;23;20003;-57
2022/05/14 01:33:58;;;;;;;1.40;0.60;;;21.40;55.20;;;;;;6256627;23;20011;-54
2022/05/14 01:36:24;;;;;;;2.10;0.70;;;21.50;89.90;;;;;;6256801;23;20063;-57
2022/05/14 01:38:50;;;;;;;1.73;0.77;;;21.50;89.90;;;;;;6256668;23;20553;-57
2022/05/14 01:41:15;;;;;;;2.13;0.82;;;;;;;;;;6256663;23;19996;-56
2022/05/14 01:43:41;;;;;;;2.05;0.55;;;21.50;90.00;;;;;;6256629;23;20020;-56
2022/05/14 01:46:07;;;;;;;2.05;0.68;;;21.50;90.00;;;;;;6256580;23;20046;-56
2022/05/14 01:48:34;;;;;;;2.88;0.95;;;21.50;53.70;;;;;;6256663;23;20004;-55
2022/05/14 01:50:59;;;;;;;3.60;0.90;;;21.60;90.00;;;;;;6246810;23;20003;-56
2022/05/14 01:53:25;;;;;;;2.30;0.85;;;21.50;90.00;;;;;;6256438;23;20328;-55
2022/05/14 01:55:51;;;;;;;1.50;0.80;;;21.40;90.00;;;;;;6256530;23;20046;-56
2022/05/14 02:01:01;;;;;;;1.67;0.73;;;21.40;90.00;;;;;;6256593;23;20011;-54
2022/05/14 02:03:26;;;;;;;1.27;0.60;;;21.50;86.50;;;;;;6256329;22;20387;-56
2022/05/14 02:05:52;;;;;;;2.00;0.90;;;;;;;;;;6256460;23;20003;-56
2022/05/14 02:08:18;;;;;;;1.33;0.60;;;;;;;;;;6246120;23;20091;-55
2022/05/14 02:10:44;;;;;;;2.25;0.80;;;;;;;;;;6256234;23;19992;-56
2022/05/14 02:13:11;;;;;;;2.88;0.60;;;;;;;;;;6256056;23;20017;-57
2022/05/14 02:15:37;;;;;;;1.45;0.80;;;21.40;79.90;;;;;;6256355;23;20024;-55
2022/05/14 02:18:02;;;;;;;0.80;0.75;;;;;;;;;;6219163;23;20000;-56
2022/05/14 02:20:29;;;;;;;2.38;0.90;;;;;;;;;;6256190;23;20006;-55
2022/05/14 02:22:54;;;;;;;1.52;0.95;;;21.30;66.10;;;;;;6256226;23;20006;-56
2022/05/14 02:25:20;;;;;;;4.22;0.90;;;;;;;;;;6256275;23;20451;-53
2022/05/14 02:27:46;;;;;;;2.53;1.17;;;;;;;;;;6246434;23;20335;-56
2022/05/14 02:30:13;;;;;;;2.40;0.77;;;21.40;55.90;;;;;;6256117;23;20007;-55
2022/05/14 02:32:39;;;;;;;2.42;0.82;;;21.60;90.20;;;;;;6256047;23;20008;-56
2022/05/14 02:35:06;;;;;;;2.10;0.80;;;21.20;78.90;;;;;;6256143;23;20059;-55
2022/05/14 02:37:32;;;;;;;1.50;0.68;;;21.30;84.30;;;;;;6256023;23;20000;-55
2022/05/14 02:39:57;;;;;;;2.35;0.85;;;21.00;90.00;;;;;;6256114;23;20063;-56
2022/05/14 02:42:23;;;;;;;2.13;0.90;;;21.10;90.30;;;;;;6256025;23;20031;-57
2022/05/14 02:44:49;;;;;;;2.90;0.75;;;21.50;90.30;;;;;;6256141;23;20463;-55
2022/05/14 02:47:15;;;;;;;2.15;1.13;;;21.30;70.80;;;;;;6256005;23;20082;-55
2022/05/14 02:49:41;;;;;;;2.03;0.90;;;21.40;90.20;;;;;;6256071;23;20018;-56
2022/05/14 02:52:07;;;;;;;3.15;0.77;;;21.30;76.30;;;;;;6245649;23;20447;-56
2022/05/14 02:54:34;;;;;;;2.38;0.90;;;21.20;62.20;;;;;;6246046;23;20075;-55
2022/05/14 02:57:00;;;;;;;2.75;0.93;;;21.40;90.30;;;;;;6255952;23;20030;-55
2022/05/14 02:59:26;;;;;;;2.10;0.95;;;21.50;90.30;;;;;;6256083;23;20593;-55
2022/05/14 03:01:52;;;;;;;2.22;0.77;;;20.80;90.20;;;;;;6255839;22;20018;-56
2022/05/14 03:04:30;;;;;;;3.13;0.80;;;21.60;90.30;;;;;;6245674;23;20006;-55
2022/05/14 03:06:57;;;;;;;2.58;1.35;;;21.40;90.40;;;;;;6246079;23;20004;-56
2022/05/14 03:09:23;;;;;;;1.52;0.70;;;21.40;82.90;;;;;;6255807;23;20464;-57
2022/05/14 03:11:49;;;;;;;3.38;1.40;;;21.50;90.30;;;;;;6255849;23;20075;-57
2022/05/14 03:14:16;;;;;;;3.03;0.80;;;21.40;90.40;;;;;;6255680;23;20027;-56
2022/05/14 03:16:43;;;;;;;3.28;0.93;;;21.40;90.50;;;;;;6245937;23;20003;-57
2022/05/14 03:19:09;;;;;;;3.20;1.17;;;21.30;54.40;;;;;;6255732;23;19996;-57
2022/05/14 03:21:36;;;;;;;2.70;0.88;;;21.40;90.40;;;;;;6255895;23;19996;-55
2022/05/14 03:24:02;;;;;;;2.50;0.95;;;21.50;90.50;;;;;;6245430;23;20071;-56
2022/05/14 03:26:27;;;;;;;3.30;0.82;;;21.20;90.40;;;;;;6255701;23;20039;-57
2022/05/14 03:28:53;;;;;;;2.55;0.93;;;21.20;90.40;;;;;;6255608;23;20327;-56
2022/05/14 03:31:19;;;;;;;1.98;0.75;;;21.50;90.50;;;;;;6255606;23;20028;-56
2022/05/14 03:33:45;;;;;;;2.47;0.85;;;;;;;;;;6255447;23;20011;-56
2022/05/14 03:36:11;;;;;;;3.25;0.93;;;;;;;;;;6255544;23;20003;-56
2022/05/14 03:38:37;;;;;;;4.70;1.05;;;21.30;81.70;;;;;;6255543;23;20075;-55
2022/05/14 03:41:03;;;;;;;2.10;0.88;;;21.10;90.50;;;;;;6255554;23;20000;-55
2022/05/14 03:43:30;;;;;;;2.50;0.82;;;21.40;90.50;;;;;;6255513;23;20427;-56
2022/05/14 03:45:56;;;;;;;3.72;1.00;;;21.40;90.60;;;;;;6255490;23;19996;-57
2022/05/14 03:48:21;;;;;;;2.85;1.00;;;21.40;90.60;;;;;;6255395;23;20000;-56
2022/05/14 03:50:47;;;;;;;3.28;0.80;;;21.20;83.60;;;;;;6255481;23;19996;-56
2022/05/14 03:53:13;;;;;;;3.20;0.80;;;;;;;;;;6255320;23;20003;-57
2022/05/14 03:55:38;;;;;;;1.80;0.85;;;21.30;77.80;;;;;;6255288;23;20027;-55
2022/05/14 03:58:04;;;;;;;2.42;0.80;;;;;;;;;;6255509;23;20000;-55
2022/05/14 04:00:31;;;;;;;3.85;1.15;;;;;;;;;;6255354;23;19996;-55
2022/05/14 04:02:56;;;;;;;1.38;0.73;;;21.10;90.30;;;;;;6255217;22;20390;-55
2022/05/14 04:05:22;;;;;;;3.72;1.10;;;;;;;;;;6255288;23;19996;-55
2022/05/14 04:07:48;;;;;;;2.53;0.85;;;;;;;;;;6255038;23;20046;-55
2022/05/14 04:10:16;;;;;;;1.70;1.00;;;21.20;56.40;;;;;;6245403;23;20004;-56
2022/05/14 04:12:42;;;;;;;1.63;0.90;;;21.30;90.50;;;;;;6244841;23;20035;-57
2022/05/14 04:15:08;;;;;;;2.33;0.98;;;21.40;90.60;;;;;;6255222;23;19992;-57
2022/05/14 04:17:34;;;;;;;3.25;1.20;;;;;;;;;;6255225;23;20000;-45
2022/05/14 04:20:00;;;;;;;1.67;0.73;;;;;;;;;;6255105;23;20028;-45
2022/05/14 04:22:26;;;;;;;3.65;1.02;;;21.20;90.50;;;;;;6218027;23;20003;-44
2022/05/14 04:24:51;;;;;;;2.40;1.10;;;20.70;90.50;;;;;;6255181;23;20187;-45
2022/05/14 04:27:17;;;;;;;2.80;1.00;;;21.30;90.70;;;;;;6255104;23;19993;-45
2022/05/14 04:29:43;;;;;;;2.30;0.77;;;21.10;90.60;;;;;;6255032;23;20002;-44
2022/05/14 04:32:08;;;;;;;1.75;0.80;;;;;;;;;;6255020;23;19996;-44
2022/05/14 04:34:35;;;;;;;2.22;0.85;;;;;;;;;;6255023;23;20012;-45
2022/05/14 04:37:01;;;;;;;2.67;1.10;;;;;;;;;;6255049;23;20708;-45
2022/05/14 04:39:33;;;;;;;3.42;1.10;;;;;;;;;;6255115;23;20072;-45
2022/05/14 04:42:00;;;;;;;2.60;0.90;;;21.00;60.20;;;;;;6255030;23;20050;-46
2022/05/14 04:44:27;;;;;;;3.33;1.27;;;;;;;;;;6245148;23;20333;-45
2022/05/14 04:46:52;;;;;;;2.80;1.08;;;21.20;90.80;;;;;;6255040;23;20000;-45
2022/05/14 04:49:18;;;;;;;3.08;0.90;;;;;;;;;;6254993;23;20424;-45
2022/05/14 04:51:44;;;;;;;1.67;0.77;;;;;;;;;;6245046;23;19997;-44
2022/05/14 04:54:11;;;;;;;3.30;1.00;;;;;;;;;;6254895;23;20444;-47
2022/05/14 04:56:37;;;;;;;1.65;0.80;;;21.20;90.00;;;;;;6255013;23;20000;-46
2022/05/14 04:59:03;;;;;;;1.58;1.02;;;;;;;;;;6254955;23;20011;-47
2022/05/14 05:01:29;;;;;;;4.15;1.15;;;21.10;74.80;;;;;;6254853;22;19993;-47
2022/05/14 05:03:55;;;;;;;1.85;0.77;;;21.00;67.60;;;;;;6254967;23;20000;-45
2022/05/14 05:06:23;;;;;;;3.13;1.00;;;;;;;;;;6254903;23;20278;-46
2022/05/14 05:08:51;;;;;;;2.88;1.10;;;;;;;;;;6244539;23;20012;-45
2022/05/14 05:11:17;;;;;;;2.55;1.20;;;;;;;;;;6254917;23;20000;-45
2022/05/14 05:13:43;;;;;;;3.50;1.35;;;;;;;;;;6254824;23;20016;-45
2022/05/14 05:16:09;;;;;;;3.10;1.40;;;21.00;83.30;;;;;;6254870;23;20061;-45
2022/05/14 05:18:35;;;;;;;2.47;0.80;;;21.10;90.60;;;;;;6254836;23;20434;-45
2022/05/14 05:21:01;;;;;;;1.92;0.90;;;;;;;;;;6228010;23;20338;-46
2022/05/14 05:23:27;;;;;;;2.53;1.10;;;21.00;74.60;;;;;;6254883;23;20004;-45
2022/05/14 05:25:54;;;;;;;4.07;1.35;;;21.00;56.60;;;;;;6254795;23;20024;-45
2022/05/14 05:28:21;;;;;;;3.65;1.00;;;;;;;;;;6244954;23;20336;-45
2022/05/14 05:30:47;;;;;;;2.97;1.05;;;21.70;58.20;;;;;;6254899;23;20008;-44
2022/05/14 05:33:17;;;;;;;2.22;0.90;;;21.30;81.40;;;;;;6254677;23;20019;-45
2022/05/14 05:35:43;;;;;;;1.10;1.00;;;;;;;;;;6254717;23;20071;-45
2022/05/14 05:38:09;;;;;;;3.20;0.95;;;;;;;;;;6254799;23;20070;-45
2022/05/14 05:40:36;;;;;;;1.95;1.02;;;;;;;;;;6254746;23;19996;-45
2022/05/14 05:43:04;;;;;;;1.63;0.77;;;21.10;90.60;;;;;;6244859;23;20023;-44
2022/05/14 05:45:31;;;;;;;2.63;0.88;;;;;;;;;;6254782;23;20035;-45
2022/05/14 05:48:00;;;;;;;2.33;1.13;;;21.00;57.00;;;;;;6256279;23;20079;-45
2022/05/14 05:50:27;;;;;;;3.38;1.20;;;;;;;;;;6246719;23;20042;-45
2022/05/14 05:52:54;;;;;;;3.35;1.20;;;;;;;;;;6256417;23;20015;-45
2022/05/14 05:58:05;;;;;;;2.33;1.13;;;;;;;;;;6256544;23;20390;-45
2022/05/14 06:00:31;;;;;;;1.95;1.10;;;21.20;90.80;;;;;;6246631;23;20083;-44
2022/05/14 06:02:58;;;;;;;3.05;1.05;;;;;;;;;;6246479;22;19996;-46
2022/05/14 06:05:24;;;;;;;2.03;0.82;;;;;;;;;;6246599;23;20327;-45
2022/05/14 06:07:50;;;;;;;2.78;0.90;;;;;;;;;;6256297;23;20090;-44
2022/05/14 06:10:18;;;;;;;1.90;0.88;;;21.20;90.80;;;;;;6256369;23;20458;-45
2022/05/14 06:12:45;;;;;;;2.40;0.75;;;;;;;;;;6256284;23;20004;-44
2022/05/14 06:15:15;;;;;;;2.03;0.73;;;21.00;90.70;;;;;;6256307;23;19996;-45
2022/05/14 06:17:41;;;;;;;3.05;0.77;;;21.00;90.60;;;;;;6256295;23;20428;-44
2022/05/14 06:20:10;;;;;;;1.40;0.80;;;21.20;82.40;;;;;;6256308;23;20072;-45
2022/05/14 06:22:35;;;;;;;3.03;1.10;;;21.10;90.50;;;;;;6256233;23;20004;-45
2022/05/14 06:25:02;;;;;;;1.90;0.70;;;21.10;90.40;;;;;;6256090;23;20473;-44
2022/05/14 06:27:28;;;;;;;7.20;0.60;;;21.10;56.20;;;;;;6245903;23;20000;-45
2022/05/14 06:29:54;;;;;;;2.25;1.17;;;;;;;;;;6256138;23;19996;-45
2022/05/14 06:32:20;;;;;;;3.25;0.80;;;;;;;;;;6256108;23;20493;-45
2022/05/14 06:34:46;;;;;;;2.47;0.70;;;;;;;;;;6256155;23;19997;-45
2022/05/14 06:37:13;;;;;;;5.03;1.23;;;;;;;;;;6256028;23;20435;-45
2022/05/14 06:39:39;;;;;;;2.40;0.75;;;;;;;;;;6245813;23;20036;-45
2022/05/14 06:42:05;;;;;;;2.03;0.90;;;21.10;90.20;;;;;;6246217;23;20315;-45
2022/05/14 06:44:31;;;;;;;4.75;1.10;;;21.50;90.30;;;;;;6256072;23;20007;-53
2022/05/14 06:46:57;;;;;;;3.60;1.20;;;21.40;90.40;;;;;;6256090;23;19996;-53
2022/05/14 06:49:23;;;;;;;3.40;1.20;;;21.20;90.30;;;;;;6256013;23;20000;-54
2022/05/14 06:51:52;;;;;;;1.52;0.90;;;21.00;55.90;;;;;;6255957;23;19996;-55
2022/05/14 06:54:18;;;;;;;3.80;1.23;;;;;;;;;;6245891;23;20087;-53
2022/05/14 06:56:45;;;;;;;7.55;1.15;;;;;;;;;;6255878;23;20007;-55
2022/05/14 06:59:11;;;;;;;7.22;1.25;;;19.60;57.10;;;;;;6245931;23;20004;-54
2022/05/14 07:01:39;;;;;;;9.30;1.50;;;21.40;90.90;;;;;;6255821;22;19993;-54
2022/05/14 07:06:51;;;;;;;8.95;1.35;;;21.40;90.90;;;;;;6255827;23;20065;-47
2022/05/14 07:09:22;;;;;;;11.57;1.67;;;21.30;57.60;;;;;;6255246;23;20431;-47
2022/05/14 07:11:50;;;;;;;6.90;1.73;;;21.40;57.70;;;;;;6245763;23;20011;-47
2022/05/14 07:14:17;;;;;;;10.35;1.33;;;;;;;;;;6255387;23;20008;-47
2022/05/14 07:16:43;;;;;;;8.13;1.35;;;21.20;58.80;;;;;;6255451;23;20008;-47
2022/05/14 07:19:09;;;;;;;8.77;1.60;;;21.50;86.70;;;;;;6255472;23;20340;-46
2022/05/14 07:21:36;;;;;;;8.38;1.52;;;21.30;57.20;;;;;;6255561;23;19992;-46
2022/05/14 07:24:07;;;;;;;7.55;1.30;;;21.40;57.10;;;;;;6255781;23;20439;-47
2022/05/14 07:26:38;;;;;;;9.20;2.03;;;21.30;90.60;;;;;;6218103;23;20427;-47
2022/05/14 07:29:10;;;;;;;8.60;1.23;;;21.50;90.50;;;;;;6245571;23;20075;-46
2022/05/14 07:31:36;;;;;;;6.20;1.35;;;21.50;90.60;;;;;;6255504;23;20522;-46
2022/05/14 07:34:03;;;;;;;7.65;1.30;;;21.40;90.60;;;;;;6255257;23;20378;-47
2022/05/14 07:36:32;;;;;;;3.85;1.30;;;21.40;56.70;;;;;;6255283;23;19996;-47
2022/05/14 07:39:02;;;;;;;4.97;1.48;;;21.40;90.50;;;;;;6245180;23;20024;-45
2022/05/14 07:41:28;;;;;;;;;;;21.90;57.70;;;;;;6246056;23;20325;-56
2022/05/14 07:43:56;;;;;;;7.05;1.20;;;21.40;90.50;;;;;;6245168;23;19899;-54
2022/05/14 07:46:27;;;;;;;8.13;1.48;;;21.50;57.10;;;;;;6255161;23;20003;-55
2022/05/14 07:48:54;;;;;;;4.70;1.13;;;21.40;57.30;;;;;;6255151;23;20392;-54
2022/05/14 07:51:20;;;;;;;10.23;1.88;;;21.40;75.00;;;;;;6245056;23;20050;-55
2022/05/14 07:53:46;;;;;;;10.82;1.58;;;21.40;54.90;;;;;;6254943;23;20065;-54
2022/05/14 07:56:12;;;;;;;4.97;1.00;;;21.00;56.10;;;;;;6255008;23;20000;-54
2022/05/14 07:58:42;;;;;;;4.65;1.10;;;21.50;56.70;;;;;;6254948;23;20023;-54
2022/05/14 08:01:07;;;;;;;5.88;1.20;;;21.30;90.40;;;;;;6245040;22;19996;-55
2022/05/14 08:03:33;;;;;;;5.15;1.40;;;21.20;72.40;;;;;;6254903;23;20458;-54
2022/05/14 08:05:59;;;;;;;6.70;1.45;;;21.50;54.00;;;;;;6245000;23;19996;-55
2022/05/14 08:08:27;;;;;;;5.18;1.70;;;21.40;54.70;;;;;;6244340;23;20125;-55
2022/05/14 08:10:53;;;;;;;3.67;1.48;;;21.50;55.00;;;;;;6254462;23;20435;-54
2022/05/14 08:13:21;;;;;;;9.23;2.20;;;21.60;56.40;;;;;;6254749;23;20019;-55
2022/05/14 08:15:48;;;;;;;7.43;1.92;;;21.60;56.30;;;;;;6254797;23;20366;-55
2022/05/14 08:18:15;;;;;;;5.18;1.50;;;21.60;56.30;;;;;;6254590;23;20003;-54
2022/05/14 08:20:42;;;;;;;10.63;2.03;;;21.70;56.50;;;;;;6227871;23;19996;-54
2022/05/14 08:25:54;;;;;;;5.95;1.70;;;;;;;;;;6254591;23;20099;-54
2022/05/14 08:28:19;;;;;;;4.82;1.25;;;21.30;71.10;;;;;;6254613;23;20000;-55
2022/05/14 08:30:45;;;;;;;6.30;1.80;;;21.70;90.10;;;;;;6254347;23;20460;-54
2022/05/14 08:33:11;;;;;;;4.97;1.50;;;;;;;;;;6244550;23;20079;-55
2022/05/14 08:35:37;;;;;;;6.15;1.33;;;21.80;90.20;;;;;;6217489;23;20048;-45
2022/05/14 08:38:04;;;;;;;6.82;1.40;;;22.00;90.20;;;;;;6244774;23;20008;-45
2022/05/14 08:40:38;;;;;;;4.25;1.40;;;21.60;90.00;;;;;;6254705;23;20028;-45
2022/05/14 08:43:11;;;;;;;5.57;1.40;;;21.70;64.40;;;;;;6254712;23;20043;-45
2022/05/14 08:45:38;;;;;;;8.65;1.40;;;22.00;90.10;;;;;;6254850;23;19996;-44
2022/05/14 08:48:16;;;;;;;5.30;1.52;;;21.70;55.50;;;;;;6244458;23;19996;-45
2022/05/14 08:50:44;;;;;;;6.82;1.70;;;21.90;55.70;;;;;;6254795;23;20004;-46
2022/05/14 08:53:13;;;;;;;7.85;1.85;;;21.90;90.00;;;;;;6254647;23;20007;-46
2022/05/14 08:55:54;;;;;;;6.90;1.90;;;21.80;72.40;;;;;;6254740;23;19993;-45
2022/05/14 08:58:51;;;;;;;7.65;1.73;;;22.00;51.40;;;;;;6254769;23;20045;-45
2022/05/14 09:01:23;;;;;;;35.97;1.95;;;22.20;89.70;;;;;;6254604;22;19996;-45
2022/05/14 09:03:49;;;;;;;4.20;1.65;;;;;;;;;;6244569;23;20028;-47
2022/05/14 09:06:15;;;;;;;9.13;1.70;;;;;;;;;;6254949;23;20007;-43
2022/05/14 09:08:40;;;;;;;4.70;1.45;;;22.20;64.50;;;;;;6254689;23;20087;-43
2022/05/14 09:11:17;;;;;;;7.90;1.65;;;22.30;57.00;;;;;;6255033;23;20070;-41
2022/05/14 09:13:47;;;;;;;19.80;2.40;;;22.20;90.60;;;;;;6254708;23;20008;-41
2022/05/14 09:16:31;;;;;;;10.13;2.20;;;22.30;79.50;;;;;;6254906;23;20007;-41
2022/05/14 09:18:57;;;;;;;8.63;1.92;;;22.20;74.00;;;;;;6254540;23;19992;-42
2022/05/14 09:21:24;;;;;;;11.05;1.90;;;22.40;86.50;;;;;;6254913;23;20004;-42
2022/05/14 09:23:54;;;;;;;9.13;1.98;;;22.80;55.70;;;;;;6256544;23;19996;-42
2022/05/14 09:26:25;;;;;;;;;;;23.20;56.80;;;;;;6247528;23;20000;-42
2022/05/14 09:29:13;;;;;;;6.60;1.75;;;22.70;54.80;;;;;;6246727;23;20345;-43
2022/05/14 09:32:09;;;;;;;8.80;2.00;;;22.60;69.10;;;;;;6256766;23;20020;-43
2022/05/14 09:34:35;;;;;;;8.90;1.90;;;23.10;89.30;;;;;;6226714;23;20042;-42
2022/05/14 09:37:16;;;;;;;7.07;2.00;;;22.50;88.70;;;;;;6256642;23;20004;-43
2022/05/14 09:39:42;;;;;;;6.18;2.05;;;23.30;88.60;;;;;;6256592;23;20345;-42
2022/05/14 09:42:24;;;;;;;6.10;1.70;;;23.10;54.50;;;;;;6246566;23;20392;-42
2022/05/14 09:44:52;;;;;;;6.03;1.65;;;23.20;54.80;;;;;;6256549;23;20076;-43
2022/05/14 09:47:30;;;;;;;4.95;1.50;;;23.30;87.90;;;;;;6256743;23;20000;-42
2022/05/14 09:50:02;;;;;;;6.72;1.20;;;23.30;88.00;;;;;;6246610;23;20600;-43
2022/05/14 09:52:32;;;;;;;4.85;1.70;;;23.40;53.90;;;;;;6246320;23;20023;-43
2022/05/14 09:55:01;;;;;;;5.07;1.42;;;23.40;53.70;;;;;;6246530;23;20023;-42
2022/05/14 09:57:32;;;;;;;2.90;1.23;;;23.50;54.10;;;;;;6256302;23;20019;-43
2022/05/14 09:59:57;;;;;;;4.53;1.52;;;23.20;88.30;;;;;;6256409;23;20000;-42
2022/05/14 10:02:44;;;;;;;8.40;1.63;;;23.60;88.50;;;;;;6256147;22;20022;-43
2022/05/14 10:05:18;;;;;;;5.57;1.75;;;23.60;52.30;;;;;;6246469;23;20024;-42
2022/05/14 10:07:52;;;;;;;3.75;1.38;;;23.60;70.60;;;;;;6246092;23;20391;-42
2022/05/14 10:10:37;;;;;;;4.97;1.60;;;23.60;87.40;;;;;;6256208;23;20051;-42
2022/05/14 10:13:26;;;;;;;2.75;1.02;;;24.10;61.20;;;;;;6256083;23;20008;-42
2022/05/14 10:16:10;;;;;;;5.65;1.42;;;23.80;52.60;;;;;;6245078;23;20320;-42
2022/05/14 10:18:44;;;;;;;4.93;1.30;;;24.10;87.10;;;;;;6256112;23;20042;-42
2022/05/14 10:21:10;;;;;;;5.50;1.30;;;;;;;;;;6256039;23;20000;-42
2022/05/14 10:26:56;;;;;;;8.80;1.83;;;23.90;88.00;;;;;;6256152;23;20047;-43
2022/05/14 10:29:41;;;;;;;8.13;1.63;;;23.50;87.40;;;;;;6255973;23;19996;-42
2022/05/14 10:32:12;;;;;;;4.75;1.60;;;24.40;62.30;;;;;;6255715;23;20000;-42
2022/05/14 10:34:47;;;;;;;5.30;1.20;;;24.30;52.10;;;;;;6255830;23;20058;-42
2022/05/14 10:37:24;;;;;;;3.53;1.35;;;24.40;52.20;;;;;;6256076;23;20006;-43
2022/05/14 10:39:59;;;;;;;3.75;1.45;;;24.30;51.30;;;;;;6256062;23;20007;-43
2022/05/14 10:42:52;;;;;;;4.00;1.20;;;24.30;74.30;;;;;;6255949;23;20489;-43
2022/05/14 10:45:22;;;;;;;4.18;1.50;;;24.50;85.90;;;;;;6246260;23;20000;-43
2022/05/14 10:48:15;;;;;;;2.20;1.35;;;24.30;51.50;;;;;;6246141;23;20000;-42
2022/05/14 10:50:40;;;;;;;3.80;1.00;;;24.10;68.20;;;;;;6256009;23;20042;-42
2022/05/14 10:53:08;;;;;;;4.72;1.30;;;24.30;51.40;;;;;;6255821;23;20012;-43
2022/05/14 10:55:43;;;;;;;4.93;1.08;;;25.10;51.60;;;;;;6255963;23;20000;-42
2022/05/14 10:58:21;;;;;;;2.00;1.10;;;24.10;67.80;;;;;;6255916;23;20351;-42
2022/05/14 11:00:47;;;;;;;4.43;1.23;;;24.60;60.40;;;;;;6245706;23;19996;-42
2022/05/14 11:03:32;;;;;;;5.70;1.02;;;24.00;68.40;;;;;;6255791;22;20004;-43
2022/05/14 11:06:00;;;;;;;4.03;1.13;;;24.70;85.20;;;;;;6246115;23;20368;-42
2022/05/14 11:08:37;;;;;;;2.95;1.25;;;24.40;50.80;;;;;;6255586;23;20054;-42
2022/05/14 11:11:20;;;;;;;3.05;0.90;;;24.30;72.40;;;;;;6246012;23;20304;-43
2022/05/14 11:14:08;;;;;;;3.55;1.00;;;24.10;84.30;;;;;;6245857;23;20368;-41
2022/05/14 11:16:49;;;;;;;2.63;1.17;;;24.50;84.80;;;;;;6245968;23;20000;-43
2022/05/14 11:19:31;;;;;;;5.50;1.60;;;24.00;76.40;;;;;;6255805;23;19992;-42
2022/05/14 11:21:59;;;;;;;3.47;1.10;;;24.00;84.10;;;;;;6255690;23;20530;-43
2022/05/14 11:24:45;;;;;;;3.88;1.35;;;24.30;50.40;;;;;;6255612;23;20374;-43
2022/05/14 11:27:14;;;;;;;11.77;1.20;;;;;;;;;;6245089;23;20424;-43
2022/05/14 11:29:52;;;;;;;5.68;0.93;;;24.40;58.50;;;;;;6245686;23;20004;-42
2022/05/14 11:32:21;;;;;;;6.18;1.23;;;24.40;79.50;;;;;;6245677;23;19996;-42
2022/05/14 11:34:56;;;;;;;5.10;1.30;;;24.50;50.30;;;;;;6255562;23;20004;-42
2022/05/14 11:37:34;;;;;;;5.30;1.23;;;24.40;85.20;;;;;;6245441;23;19992;-43
2022/05/14 11:40:19;;;;;;;5.28;1.25;;;24.50;49.90;;;;;;6245532;23;20482;-42
2022/05/14 11:42:47;;;;;;;5.90;1.17;;;24.00;60.20;;;;;;6255520;23;20036;-43
2022/05/14 11:45:16;;;;;;;4.93;1.45;;;24.70;85.60;;;;;;6255208;23;20367;-42
2022/05/14 11:48:16;;;;;;;4.35;1.40;;;24.60;85.30;;;;;;6255603;23;20363;-42
2022/05/14 11:51:14;;;;;;;4.35;1.23;;;24.40;84.70;;;;;;6245775;23;20000;-42
2022/05/14 11:53:49;;;;;;;6.28;1.67;;;24.60;50.80;;;;;;6255453;23;20008;-42
2022/05/14 11:56:38;;;;;;;3.00;1.52;;;24.60;50.10;;;;;;6255467;23;20440;-43
2022/05/14 11:59:24;;;;;;;6.38;1.00;;;24.90;85.30;;;;;;6218413;23;20324;-42
2022/05/14 12:01:50;;;;;;;10.05;1.60;;;24.40;84.30;;;;;;6255215;22;20028;-41
2022/05/14 12:04:36;;;;;;;5.03;1.15;;;24.70;50.00;;;;;;6245506;23;20031;-41
2022/05/14 12:07:19;;;;;;;2.95;1.20;;;24.30;84.60;;;;;;6245568;23;20000;-42
2022/05/14 12:10:06;;;;;;;2.47;1.10;;;22.40;48.60;;;;;;6245554;23;20086;-41
2022/05/14 12:12:56;;;;;;;3.17;1.15;;;24.90;84.40;;;;;;6255229;23;20041;-42
2022/05/14 12:15:24;;;;;;;;;;;24.80;50.30;;;;;;6255942;23;20375;-42
2022/05/14 12:17:52;;;;;;;2.80;1.25;;;24.80;62.10;;;;;;6245357;23;19961;-41
2022/05/14 12:20:22;;;;;;;3.42;1.15;;;24.90;50.50;;;;;;6255236;23;19999;-41
2022/05/14 12:22:53;;;;;;;4.97;1.65;;;24.70;84.10;;;;;;6245434;23;20002;-42
2022/05/14 12:25:19;;;;;;;4.20;0.93;;;25.10;84.40;;;;;;6255218;23;20374;-41
2022/05/14 12:27:47;;;;;;;2.55;1.30;;;24.90;53.90;;;;;;6255129;23;20000;-41
2022/05/14 12:30:13;;;;;;;4.65;1.02;;;25.20;84.40;;;;;;6255028;23;20046;-42
2022/05/14 12:35:31;;;;;;;5.35;1.30;;;;;;;;;;6255166;23;20038;-41
2022/05/14 12:37:59;;;;;;;3.35;0.88;;;24.70;74.00;;;;;;6255088;23;19996;-43
2022/05/14 12:40:33;;;;;;;4.57;1.33;;;24.80;75.70;;;;;;6255006;23;20099;-41
2022/05/14 12:42:59;;;;;;;3.05;1.25;;;25.00;61.20;;;;;;6255136;23;19993;-42
2022/05/14 12:45:36;;;;;;;1.05;0.80;;;24.90;75.80;;;;;;6254973;23;19996;-41
2022/05/14 12:48:02;;;;;;;6.85;1.25;;;;;;;;;;6244601;23;20014;-41
2022/05/14 12:50:33;;;;;;;5.22;1.33;;;24.70;83.70;;;;;;6244987;23;20004;-41
2022/05/14 12:53:09;;;;;;;4.35;0.90;;;25.00;51.10;;;;;;6244585;23;20004;-40
2022/05/14 12:55:41;;;;;;;2.70;1.27;;;24.70;79.20;;;;;;6228920;23;20008;-40
2022/05/14 12:58:07;;;;;;;1.98;1.00;;;;;;;;;;6258197;23;20045;-41
2022/05/14 13:00:37;;;;;;;3.42;1.20;;;24.90;77.30;;;;;;6257961;23;20007;-42
2022/05/14 13:03:18;;;;;;;2.78;0.82;;;25.00;49.90;;;;;;6258061;22;20336;-42
2022/05/14 13:05:49;;;;;;;3.85;1.23;;;25.00;50.40;;;;;;6258101;23;19999;-41
2022/05/14 13:08:17;;;;;;;1.85;1.10;;;25.20;72.40;;;;;;6258015;23;20035;-42
2022/05/14 13:10:50;;;;;;;5.80;0.98;;;25.10;84.10;;;;;;6258148;23;19992;-54
2022/05/14 13:13:16;;;;;;;4.63;1.52;;;25.20;84.40;;;;;;6258180;23;20085;-54
2022/05/14 13:15:53;;;;;;;2.97;1.17;;;24.80;49.70;;;;;;6258233;23;20004;-55
2022/05/14 13:18:24;;;;;;;2.90;1.10;;;24.80;49.70;;;;;;6248521;23;20316;-55
2022/05/14 13:21:06;;;;;;;2.67;1.10;;;24.80;84.20;;;;;;6258295;23;20008;-54
2022/05/14 13:23:33;;;;;;;2.50;1.10;;;24.90;84.10;;;;;;6258362;23;19996;-54
2022/05/14 13:26:07;;;;;;;3.70;1.25;;;24.60;83.90;;;;;;6258232;23;20003;-53
2022/05/14 13:28:39;;;;;;;4.47;1.17;;;24.60;49.40;;;;;;6258429;23;20071;-51
2022/05/14 13:31:23;;;;;;;2.70;0.93;;;24.40;81.50;;;;;;6248432;23;20003;-54
2022/05/14 13:39:29;;;;;;;4.32;1.30;;;24.30;80.90;;;;;;6258372;23;20011;-55
2022/05/14 13:41:55;;;;;;;2.03;1.13;;;;;;;;;;6258067;23;20423;-52
2022/05/14 13:44:26;;;;;;;2.45;1.10;;;24.40;60.30;;;;;;6247914;23;20432;-50
2022/05/14 13:46:59;;;;;;;4.85;1.70;;;24.50;84.30;;;;;;6258139;23;20327;-54